createdAt,value
2023-04-25T00:01:52.318Z,100.00
2023-04-25T00:04:18.920Z,100.00
2023-04-25T00:06:45.769Z,100.00
2023-04-25T00:09:12.211Z,100.00
2023-04-25T00:11:38.935Z,100.00
2023-04-25T00:14:05.677Z,100.00
2023-04-25T00:16:34.992Z,100.00
2023-04-25T00:19:03.483Z,100.00
2023-04-25T00:21:30.080Z,100.00
2023-04-25T00:23:57.086Z,100.00
2023-04-25T00:26:23.787Z,100.00
2023-04-25T00:28:50.293Z,100.00
2023-04-25T00:31:17.104Z,100.00
2023-04-25T00:33:43.887Z,100.00
2023-04-25T00:36:10.628Z,100.00
2023-04-25T00:38:37.071Z,100.00
2023-04-25T00:41:03.487Z,100.00
2023-04-25T00:43:32.287Z,100.00
2023-04-25T00:46:01.405Z,100.00
2023-04-25T00:48:28.135Z,100.00
2023-04-25T00:50:56.919Z,100.00
2023-04-25T00:53:24.729Z,100.00
2023-04-25T00:55:52.054Z,100.00
2023-04-25T00:58:19.203Z,100.00
2023-04-25T01:00:47.635Z,100.00
2023-04-25T01:03:20.585Z,100.00
2023-04-25T01:05:48.145Z,100.00
2023-04-25T01:08:15.524Z,100.00
2023-04-25T01:10:42.044Z,100.00
2023-04-25T01:13:09.064Z,100.00
2023-04-25T01:15:37.091Z,100.00
2023-04-25T01:18:04.972Z,100.00
2023-04-25T01:20:33.422Z,100.00
2023-04-25T01:23:01.271Z,100.00
2023-04-25T01:25:28.163Z,100.00
2023-04-25T01:27:54.727Z,100.00
2023-04-25T01:30:21.383Z,100.00
2023-04-25T01:32:49.167Z,100.00
2023-04-25T01:35:15.901Z,100.00
2023-04-25T01:37:43.427Z,100.00
2023-04-25T01:40:11.564Z,100.00
2023-04-25T01:42:40.108Z,100.00
2023-04-25T01:45:08.269Z,100.00
2023-04-25T01:47:36.142Z,100.00
2023-04-25T01:50:04.015Z,100.00
2023-04-25T01:52:30.456Z,100.00
2023-04-25T01:54:58.867Z,100.00
2023-04-25T01:57:25.642Z,100.00
2023-04-25T01:59:52.167Z,100.00
2023-04-25T02:02:18.806Z,100.00
2023-04-25T02:04:45.376Z,100.00
2023-04-25T02:07:11.860Z,100.00
2023-04-25T02:09:38.402Z,100.00
2023-04-25T02:12:05.182Z,100.00
2023-04-25T02:14:31.583Z,100.00
2023-04-25T02:16:58.281Z,100.00
2023-04-25T02:19:24.839Z,100.00
2023-04-25T02:21:51.294Z,100.00
2023-04-25T02:24:17.839Z,100.00
2023-04-25T02:26:45.040Z,100.00
2023-04-25T02:29:11.494Z,100.00
2023-04-25T02:31:37.926Z,100.00
2023-04-25T02:34:04.400Z,100.00
2023-04-25T02:36:33.237Z,100.00
2023-04-25T02:38:59.609Z,100.00
2023-04-25T02:41:26.062Z,100.00
2023-04-25T02:43:52.639Z,100.00
2023-04-25T02:46:28.675Z,100.00
2023-04-25T02:49:04.590Z,100.00
2023-04-25T02:51:31.343Z,100.00
2023-04-25T02:53:57.723Z,100.00
2023-04-25T02:56:24.264Z,100.00
2023-04-25T02:58:50.715Z,100.00
2023-04-25T03:01:17.207Z,100.00
2023-04-25T03:03:43.784Z,100.00
2023-04-25T03:06:10.535Z,100.00
2023-04-25T03:08:36.926Z,100.00
2023-04-25T03:11:03.377Z,100.00
2023-04-25T03:13:30.865Z,100.00
2023-04-25T03:15:57.314Z,100.00
2023-04-25T03:18:23.698Z,100.00
2023-04-25T03:20:50.088Z,100.00
2023-04-25T03:23:16.457Z,100.00
2023-04-25T03:25:42.896Z,100.00
2023-04-25T03:28:09.549Z,100.00
2023-04-25T03:30:36.066Z,100.00
2023-04-25T03:33:02.783Z,100.00
2023-04-25T03:35:29.557Z,100.00
2023-04-25T03:37:55.998Z,100.00
2023-04-25T03:40:22.560Z,100.00
2023-04-25T03:42:48.981Z,100.00
2023-04-25T03:45:15.456Z,100.00
2023-04-25T03:47:41.881Z,100.00
2023-04-25T03:50:08.666Z,100.00
2023-04-25T03:52:35.283Z,100.00
2023-04-25T03:55:02.106Z,100.00
2023-04-25T03:57:28.563Z,100.00
2023-04-25T03:59:54.994Z,100.00
2023-04-25T04:02:21.569Z,100.00
2023-04-25T04:04:48.517Z,100.00
2023-04-25T04:07:15.446Z,100.00
2023-04-25T04:09:41.918Z,100.00
2023-04-25T04:12:08.392Z,100.00
2023-04-25T04:14:34.866Z,100.00
2023-04-25T04:17:01.387Z,100.00
2023-04-25T04:19:27.855Z,100.00
2023-04-25T04:21:54.220Z,100.00
2023-04-25T04:24:20.599Z,100.00
2023-04-25T04:26:47.327Z,100.00
2023-04-25T04:29:21.542Z,100.00
2023-04-25T04:31:50.449Z,100.00
2023-04-25T04:34:18.873Z,100.00
2023-04-25T04:36:48.719Z,100.00
2023-04-25T04:39:15.217Z,100.00
2023-04-25T04:41:41.707Z,100.00
2023-04-25T04:44:09.928Z,100.00
2023-04-25T04:46:38.872Z,100.00
2023-04-25T04:49:06.100Z,100.00
2023-04-25T04:51:32.763Z,100.00
2023-04-25T04:54:03.308Z,100.00
2023-04-25T04:56:33.157Z,100.00
2023-04-25T04:58:59.911Z,100.00
2023-04-25T05:01:27.112Z,100.00
2023-04-25T05:03:54.526Z,100.00
2023-04-25T05:06:21.478Z,100.00
2023-04-25T05:08:48.018Z,99.95
2023-04-25T05:11:14.497Z,99.64
2023-04-25T05:13:40.977Z,99.33
2023-04-25T05:16:07.371Z,99.45
2023-04-25T05:18:33.782Z,98.97
2023-04-25T05:21:00.220Z,98.64
2023-04-25T05:23:28.748Z,98.91
2023-04-25T05:25:55.300Z,98.89
2023-04-25T05:28:22.296Z,98.93
2023-04-25T05:30:49.216Z,98.58
2023-04-25T05:33:16.319Z,98.27
2023-04-25T05:35:42.877Z,97.70
2023-04-25T05:38:09.482Z,98.38
2023-04-25T05:40:36.044Z,98.50
2023-04-25T05:43:02.543Z,98.26
2023-04-25T05:45:29.095Z,98.19
2023-04-25T05:47:55.653Z,98.07
2023-04-25T05:50:22.448Z,98.10
2023-04-25T05:52:48.877Z,97.57
2023-04-25T05:55:15.872Z,97.27
2023-04-25T05:57:43.343Z,96.65
2023-04-25T06:00:10.597Z,95.80
2023-04-25T06:02:37.271Z,95.74
2023-04-25T06:05:04.678Z,95.43
2023-04-25T06:07:31.799Z,94.01
2023-04-25T06:09:58.676Z,93.23
2023-04-25T06:12:25.096Z,93.19
2023-04-25T06:14:51.657Z,90.97
2023-04-25T06:17:18.238Z,88.93
2023-04-25T06:19:44.722Z,74.30
2023-04-25T06:22:11.187Z,65.24
2023-04-25T06:24:38.646Z,62.32
2023-04-25T06:27:05.110Z,59.30
2023-04-25T06:29:31.659Z,55.59
2023-04-25T06:31:58.252Z,55.45
2023-04-25T06:34:25.050Z,58.98
2023-04-25T06:36:51.493Z,62.71
2023-04-25T06:39:18.003Z,65.48
2023-04-25T06:41:44.376Z,66.99
2023-04-25T06:44:10.717Z,69.57
2023-04-25T06:46:38.643Z,69.50
2023-04-25T06:49:05.314Z,70.27
2023-04-25T06:51:31.862Z,71.59
2023-04-25T06:53:58.400Z,73.47
2023-04-25T06:56:24.961Z,73.04
2023-04-25T06:58:51.536Z,72.62
2023-04-25T07:01:18.284Z,73.55
2023-04-25T07:03:44.922Z,71.99
2023-04-25T07:06:11.867Z,70.74
2023-04-25T07:08:38.216Z,72.44
2023-04-25T07:11:04.649Z,72.02
2023-04-25T07:13:31.156Z,72.39
2023-04-25T07:15:58.196Z,71.29
2023-04-25T07:18:24.575Z,70.02
2023-04-25T07:20:50.984Z,68.53
2023-04-25T07:23:17.441Z,67.11
2023-04-25T07:25:43.911Z,64.29
2023-04-25T07:28:10.331Z,60.95
2023-04-25T07:30:37.678Z,60.17
2023-04-25T07:33:04.136Z,61.04
2023-04-25T07:35:30.607Z,62.89
2023-04-25T07:37:57.293Z,66.12
2023-04-25T07:40:23.829Z,66.76
2023-04-25T07:42:50.439Z,68.25
2023-04-25T07:45:17.067Z,69.26
2023-04-25T07:47:43.515Z,68.96
2023-04-25T07:50:11.096Z,65.94
2023-04-25T07:52:37.538Z,64.82
2023-04-25T07:55:04.342Z,65.51
2023-04-25T07:57:31.197Z,64.21
2023-04-25T07:59:57.668Z,64.15
2023-04-25T08:02:24.159Z,62.79
2023-04-25T08:04:51.015Z,65.01
2023-04-25T08:07:17.643Z,63.97
2023-04-25T08:09:44.106Z,63.12
2023-04-25T08:12:10.630Z,60.93
2023-04-25T08:14:41.430Z,63.24
2023-04-25T08:17:07.996Z,62.37
2023-04-25T08:19:34.532Z,62.31
2023-04-25T08:22:01.012Z,63.27
2023-04-25T08:24:27.438Z,64.92
2023-04-25T08:26:54.867Z,67.01
2023-04-25T08:29:21.382Z,67.44
2023-04-25T08:31:49.111Z,67.32
2023-04-25T08:34:16.205Z,66.54
2023-04-25T08:36:42.650Z,67.72
2023-04-25T08:39:09.214Z,68.05
2023-04-25T08:41:38.469Z,66.62
2023-04-25T08:44:06.503Z,65.98
2023-04-25T08:46:33.583Z,64.81
2023-04-25T08:49:02.848Z,63.24
2023-04-25T08:51:33.412Z,64.57
2023-04-25T08:56:48.710Z,65.33
2023-04-25T08:59:15.992Z,64.72
2023-04-25T09:01:42.510Z,62.69
2023-04-25T09:04:09.394Z,63.23
2023-04-25T09:06:36.028Z,63.12
2023-04-25T09:09:07.005Z,61.87
2023-04-25T09:11:34.624Z,61.86
2023-04-25T09:14:22.410Z,61.29
2023-04-25T09:16:58.086Z,60.13
2023-04-25T09:19:38.829Z,57.99
2023-04-25T09:22:08.365Z,56.59
2023-04-25T09:24:44.401Z,57.60
2023-04-25T09:27:23.953Z,57.78
2023-04-25T09:29:58.274Z,58.02
2023-04-25T09:32:25.859Z,58.15
2023-04-25T09:34:57.195Z,56.68
2023-04-25T09:37:24.930Z,56.61
2023-04-25T09:40:01.272Z,59.97
2023-04-25T09:42:29.925Z,63.12
2023-04-25T09:44:58.099Z,64.86
2023-04-25T09:47:26.256Z,65.86
2023-04-25T09:49:53.736Z,67.75
2023-04-25T09:52:26.107Z,65.48
2023-04-25T09:54:53.757Z,66.04
2023-04-25T09:57:25.353Z,63.13
2023-04-25T09:59:53.900Z,61.46
2023-04-25T10:02:22.690Z,63.07
2023-04-25T10:04:53.656Z,64.07
2023-04-25T10:07:22.382Z,62.99
2023-04-25T10:09:52.821Z,63.86
2023-04-25T10:12:19.316Z,62.10
2023-04-25T10:14:47.256Z,62.29
2023-04-25T10:17:13.964Z,60.71
2023-04-25T10:19:40.371Z,60.84
2023-04-25T10:22:18.644Z,60.32
2023-04-25T10:24:47.286Z,60.63
2023-04-25T10:27:14.185Z,60.36
2023-04-25T10:30:10.914Z,57.48
2023-04-25T10:32:37.598Z,57.41
2023-04-25T10:35:18.953Z,56.49
2023-04-25T10:38:06.333Z,56.74
2023-04-25T10:40:33.854Z,55.05
2023-04-25T10:43:39.081Z,54.31
2023-04-25T10:46:23.361Z,54.65
2023-04-25T10:48:57.107Z,54.66
2023-04-25T10:51:54.328Z,55.76
2023-04-25T10:54:24.106Z,58.54
2023-04-25T10:56:51.780Z,56.79
2023-04-25T10:59:19.874Z,57.48
2023-04-25T11:01:48.925Z,53.38
2023-04-25T11:04:33.229Z,55.46
2023-04-25T11:07:06.875Z,53.90
2023-04-25T11:09:35.932Z,53.64
2023-04-25T11:12:02.402Z,56.08
2023-04-25T11:14:29.015Z,59.43
2023-04-25T11:16:58.171Z,63.12
2023-04-25T11:19:27.245Z,66.16
2023-04-25T11:21:57.666Z,68.59
2023-04-25T11:24:29.114Z,70.30
2023-04-25T11:26:56.072Z,71.35
2023-04-25T11:29:29.022Z,73.18
2023-04-25T11:31:59.399Z,73.81
2023-04-25T11:34:26.993Z,75.25
2023-04-25T11:36:54.380Z,75.38
2023-04-25T11:39:21.259Z,74.05
2023-04-25T11:41:48.244Z,74.25
2023-04-25T11:44:19.129Z,74.43
2023-04-25T11:46:46.101Z,73.57
2023-04-25T11:49:13.604Z,71.76
2023-04-25T11:51:44.524Z,70.66
2023-04-25T11:54:12.687Z,67.48
2023-04-25T11:56:43.499Z,68.17
2023-04-25T11:59:10.611Z,67.82
2023-04-25T12:01:39.369Z,66.39
2023-04-25T12:04:18.119Z,66.65
2023-04-25T12:06:48.857Z,64.95
2023-04-25T12:09:20.189Z,63.77
2023-04-25T12:11:54.699Z,64.89
2023-04-25T12:14:27.993Z,63.27
2023-04-25T12:16:58.547Z,61.84
2023-04-25T12:19:25.251Z,61.01
2023-04-25T12:21:57.886Z,57.95
2023-04-25T12:24:27.047Z,58.25
2023-04-25T12:27:05.067Z,59.75
2023-04-25T12:29:48.635Z,59.61
2023-04-25T12:32:16.709Z,60.87
2023-04-25T12:34:43.313Z,58.97
2023-04-25T12:37:10.411Z,59.31
2023-04-25T12:39:37.029Z,57.97
2023-04-25T12:42:05.083Z,59.49
2023-04-25T12:44:32.670Z,58.43
2023-04-25T12:47:00.839Z,58.77
2023-04-25T12:49:27.407Z,58.78
2023-04-25T12:51:53.808Z,54.84
2023-04-25T12:54:20.232Z,56.07
2023-04-25T12:56:47.343Z,53.72
2023-04-25T12:59:13.743Z,54.30
2023-04-25T13:01:40.273Z,52.50
2023-04-25T13:04:07.023Z,50.91
2023-04-25T13:06:33.485Z,51.36
2023-04-25T13:08:59.948Z,53.17
2023-04-25T13:11:26.585Z,50.97
2023-04-25T13:13:53.399Z,52.40
2023-04-25T13:16:21.950Z,50.23
2023-04-25T13:18:48.818Z,51.16
2023-04-25T13:21:15.555Z,52.86
2023-04-25T13:23:44.051Z,55.00
2023-04-25T13:26:11.158Z,54.51
2023-04-25T13:28:37.824Z,56.01
2023-04-25T13:31:04.460Z,55.65
2023-04-25T13:33:31.016Z,55.33
2023-04-25T13:35:58.286Z,54.50
2023-04-25T13:38:25.782Z,53.22
2023-04-25T13:40:53.846Z,50.93
2023-04-25T13:43:23.738Z,51.98
2023-04-25T13:45:51.253Z,54.16
2023-04-25T13:48:18.735Z,53.57
2023-04-25T13:50:45.201Z,51.68
2023-04-25T13:53:11.659Z,51.30
2023-04-25T13:55:38.592Z,51.36
2023-04-25T13:58:08.939Z,51.90
2023-04-25T14:00:39.985Z,53.99
2023-04-25T14:03:08.828Z,55.46
2023-04-25T14:05:40.431Z,55.86
2023-04-25T14:08:08.891Z,55.94
2023-04-25T14:10:36.212Z,58.17
2023-04-25T14:13:04.032Z,56.56
2023-04-25T14:15:32.891Z,56.72
2023-04-25T14:18:00.334Z,54.01
2023-04-25T14:20:27.412Z,52.13
2023-04-25T14:22:55.570Z,51.08
2023-04-25T14:25:22.348Z,52.62
2023-04-25T14:27:51.001Z,50.23
2023-04-25T14:30:19.520Z,50.19
2023-04-25T14:32:46.478Z,48.68
2023-04-25T14:35:13.511Z,47.26
2023-04-25T14:37:40.392Z,49.19
2023-04-25T14:40:09.699Z,47.83
2023-04-25T14:42:36.529Z,47.58
2023-04-25T14:45:04.557Z,48.83
2023-04-25T14:47:31.063Z,49.30
2023-04-25T14:49:57.511Z,49.23
2023-04-25T14:52:24.257Z,51.11
2023-04-25T14:54:50.733Z,52.74
2023-04-25T14:57:17.492Z,52.24
2023-04-25T14:59:43.862Z,50.19
2023-04-25T15:02:10.379Z,52.26
2023-04-25T15:04:37.036Z,50.49
2023-04-25T15:07:03.881Z,52.21
2023-04-25T15:09:30.786Z,53.31
2023-04-25T15:11:59.064Z,48.98
2023-04-25T15:14:25.517Z,48.21
2023-04-25T15:16:51.976Z,46.52
2023-04-25T15:19:18.743Z,46.63
2023-04-25T15:21:45.168Z,48.92
2023-04-25T15:24:12.110Z,48.70
2023-04-25T15:26:38.608Z,49.78
2023-04-25T15:29:06.855Z,51.82
2023-04-25T15:31:33.436Z,53.16
2023-04-25T15:34:00.174Z,54.07
2023-04-25T15:36:26.681Z,51.69
2023-04-25T15:38:53.190Z,51.02
2023-04-25T15:41:19.728Z,51.39
2023-04-25T15:43:48.231Z,52.29
2023-04-25T15:46:14.941Z,52.36
2023-04-25T15:48:41.415Z,52.62
2023-04-25T15:51:07.852Z,53.54
2023-04-25T15:53:34.298Z,54.06
2023-04-25T15:56:00.762Z,55.17
2023-04-25T15:58:27.686Z,53.72
2023-04-25T16:00:55.669Z,53.77
2023-04-25T16:03:22.519Z,53.95
2023-04-25T16:05:49.532Z,53.92
2023-04-25T16:08:16.416Z,55.35
2023-04-25T16:10:42.986Z,55.69
2023-04-25T16:13:09.405Z,54.32
2023-04-25T16:15:36.034Z,56.77
2023-04-25T16:18:03.256Z,59.57
2023-04-25T16:20:29.775Z,61.14
2023-04-25T16:22:56.478Z,61.49
2023-04-25T16:25:23.119Z,62.34
2023-04-25T16:27:49.665Z,62.65
2023-04-25T16:30:16.414Z,63.04
2023-04-25T16:32:45.256Z,63.33
2023-04-25T16:38:05.296Z,63.52
2023-04-25T16:40:31.845Z,63.03
2023-04-25T16:42:58.263Z,62.47
2023-04-25T16:45:24.799Z,61.22
2023-04-25T16:47:51.300Z,60.14
2023-04-25T16:50:18.824Z,59.19
2023-04-25T16:52:45.587Z,57.35
2023-04-25T16:55:12.193Z,55.13
2023-04-25T16:57:38.592Z,54.39
2023-04-25T17:00:06.942Z,52.80
2023-04-25T17:02:33.623Z,53.14
2023-04-25T17:05:00.107Z,52.85
2023-04-25T17:07:26.793Z,52.74
2023-04-25T17:09:53.720Z,53.57
2023-04-25T17:12:21.380Z,54.58
2023-04-25T17:14:49.091Z,54.83
2023-04-25T17:17:15.583Z,55.30
2023-04-25T17:19:41.959Z,56.12
2023-04-25T17:22:09.254Z,56.04
2023-04-25T17:24:36.998Z,55.71
2023-04-25T17:27:03.905Z,55.75
2023-04-25T17:29:30.354Z,55.88
2023-04-25T17:31:57.168Z,55.30
2023-04-25T17:34:23.585Z,55.80
2023-04-25T17:36:50.183Z,55.91
2023-04-25T17:39:17.386Z,56.35
2023-04-25T17:41:44.720Z,56.31
2023-04-25T17:44:11.415Z,57.07
2023-04-25T17:46:37.988Z,57.35
2023-04-25T17:49:04.468Z,58.11
2023-04-25T17:51:31.614Z,58.20
2023-04-25T17:53:58.103Z,59.10
2023-04-25T17:56:27.080Z,59.35
2023-04-25T17:58:54.499Z,59.47
2023-04-25T18:01:21.377Z,59.79
2023-04-25T18:03:50.051Z,60.59
2023-04-25T18:06:17.852Z,60.42
2023-04-25T18:08:44.789Z,60.94
2023-04-25T18:11:11.977Z,61.67
2023-04-25T18:13:39.067Z,62.22
2023-04-25T18:16:06.070Z,62.74
2023-04-25T18:18:34.574Z,62.61
2023-04-25T18:21:03.890Z,62.92
2023-04-25T18:23:32.449Z,63.38
2023-04-25T18:25:59.097Z,64.20
2023-04-25T18:28:25.619Z,64.36
2023-04-25T18:30:52.239Z,64.44
2023-04-25T18:33:18.931Z,64.57
2023-04-25T18:35:55.247Z,64.55
2023-04-25T18:38:35.377Z,65.09
2023-04-25T18:43:43.489Z,65.53
2023-04-25T18:46:10.143Z,65.93
2023-04-25T18:48:37.080Z,66.21
2023-04-25T18:51:03.671Z,66.02
2023-04-25T18:53:30.089Z,66.03
2023-04-25T18:55:56.730Z,66.16
2023-04-25T18:58:23.156Z,66.44
2023-04-25T19:00:49.665Z,66.88
2023-04-25T19:03:17.168Z,67.30
2023-04-25T19:05:43.732Z,68.02
2023-04-25T19:08:10.152Z,68.62
2023-04-25T19:10:37.482Z,69.39
2023-04-25T19:13:04.158Z,70.13
2023-04-25T19:15:33.343Z,70.93
2023-04-25T19:17:59.821Z,71.28
2023-04-25T19:20:27.252Z,71.95
2023-04-25T19:22:54.586Z,72.14
2023-04-25T19:25:21.151Z,72.65
2023-04-25T19:27:47.786Z,73.15
2023-04-25T19:30:14.554Z,73.83
2023-04-25T19:32:41.046Z,74.24
2023-04-25T19:35:10.993Z,74.95
2023-04-25T19:37:38.364Z,74.66
2023-04-25T19:40:07.384Z,75.64
2023-04-25T19:42:33.865Z,75.60
2023-04-25T19:45:00.251Z,75.97
2023-04-25T19:47:28.057Z,75.92
2023-04-25T19:49:54.811Z,75.87
2023-04-25T19:52:21.269Z,75.92
2023-04-25T19:54:47.648Z,76.24
2023-04-25T19:57:14.433Z,75.71
2023-04-25T19:59:41.113Z,76.01
2023-04-25T20:02:10.608Z,76.38
2023-04-25T20:04:38.646Z,75.85
2023-04-25T20:07:05.107Z,76.14
2023-04-25T20:09:31.922Z,75.84
2023-04-25T20:11:58.365Z,75.86
2023-04-25T20:14:24.729Z,76.14
2023-04-25T20:16:51.195Z,76.40
2023-04-25T20:19:17.717Z,76.59
2023-04-25T20:21:44.287Z,76.85
2023-04-25T20:24:11.438Z,77.21
2023-04-25T20:26:38.000Z,77.19
2023-04-25T20:29:06.034Z,77.64
2023-04-25T20:31:34.316Z,77.71
2023-04-25T20:34:01.057Z,78.09
2023-04-25T20:36:28.128Z,78.87
2023-04-25T20:38:54.814Z,78.65
2023-04-25T20:41:21.412Z,79.22
2023-04-25T20:43:48.186Z,79.88
2023-04-25T20:46:16.000Z,80.20
2023-04-25T20:48:42.645Z,80.57
2023-04-25T20:51:09.160Z,80.85
2023-04-25T20:53:35.604Z,80.99
2023-04-25T20:56:02.715Z,81.22
2023-04-25T20:58:29.098Z,81.43
2023-04-25T21:00:56.480Z,82.07
2023-04-25T21:03:23.135Z,82.20
2023-04-25T21:05:49.785Z,82.45
2023-04-25T21:08:16.786Z,83.01
2023-04-25T21:10:43.212Z,83.21
2023-04-25T21:13:09.821Z,83.62
2023-04-25T21:15:36.340Z,83.94
2023-04-25T21:18:02.875Z,84.43
2023-04-25T21:20:29.486Z,84.62
2023-04-25T21:22:57.736Z,84.57
2023-04-25T21:25:29.299Z,84.83
2023-04-25T21:27:56.262Z,84.91
2023-04-25T21:30:24.227Z,85.31
2023-04-25T21:32:52.134Z,85.51
2023-04-25T21:35:20.142Z,85.73
2023-04-25T21:37:47.022Z,85.93
2023-04-25T21:40:14.383Z,86.04
2023-04-25T21:42:42.321Z,86.21
2023-04-25T21:45:10.121Z,86.19
2023-04-25T21:47:36.894Z,86.56
2023-04-25T21:50:04.155Z,86.73
2023-04-25T21:52:31.748Z,86.81
2023-04-25T21:54:58.172Z,87.14
2023-04-25T21:57:24.772Z,87.37
2023-04-25T21:59:51.293Z,87.31
2023-04-25T22:02:17.941Z,87.63
2023-04-25T22:04:47.240Z,88.45
2023-04-25T22:07:14.764Z,88.18
2023-04-25T22:09:53.805Z,88.47
2023-04-25T22:12:21.281Z,88.59
2023-04-25T22:14:47.824Z,88.58
2023-04-25T22:17:14.712Z,89.01
2023-04-25T22:19:41.360Z,89.01
2023-04-25T22:22:07.829Z,89.24
2023-04-25T22:24:34.312Z,89.54
2023-04-25T22:27:00.817Z,89.70
2023-04-25T22:29:27.437Z,89.98
2023-04-25T22:31:53.999Z,90.23
2023-04-25T22:34:20.702Z,89.77
2023-04-25T22:36:47.135Z,90.19
2023-04-25T22:39:15.314Z,90.38
2023-04-25T22:41:42.606Z,90.61
2023-04-25T22:44:09.372Z,90.95
2023-04-25T22:46:35.826Z,90.93
2023-04-25T22:49:02.733Z,91.30
2023-04-25T22:51:29.462Z,91.50
2023-04-25T22:53:56.150Z,91.83
2023-04-25T22:56:24.682Z,91.86
2023-04-25T22:58:51.595Z,91.76
2023-04-25T23:01:19.434Z,92.39
2023-04-25T23:03:46.328Z,92.76
2023-04-25T23:06:13.337Z,92.84
2023-04-25T23:08:40.992Z,92.88
2023-04-25T23:11:08.305Z,93.07
2023-04-25T23:13:37.736Z,93.45
2023-04-25T23:16:08.732Z,93.26
2023-04-25T23:18:36.170Z,93.60
2023-04-25T23:21:03.909Z,93.81
2023-04-25T23:23:30.661Z,94.06
2023-04-25T23:25:57.802Z,94.47
2023-04-25T23:28:24.519Z,94.90
2023-04-25T23:30:51.051Z,95.00
2023-04-25T23:33:17.496Z,95.05
2023-04-25T23:35:43.980Z,95.71
2023-04-25T23:38:10.572Z,95.55
2023-04-25T23:40:37.001Z,95.52
2023-04-25T23:43:03.530Z,95.85
2023-04-25T23:45:30.366Z,96.16
2023-04-25T23:47:57.178Z,96.52
2023-04-25T23:50:24.480Z,96.58
2023-04-25T23:52:50.882Z,96.72
2023-04-25T23:55:17.348Z,96.95
2023-04-25T23:57:44.407Z,97.10
